Aviosuperficie Chiasiellis

IT-0405 · Friuli Venezia Giulia, 意大利

罗盘
风向 的 风向 250° Aviosuperficie Chiasiellis 16/34
风: 4 kt, 2 beaufort


4 kt
改变
0 ft 5.000 10.000 15.000 20.000
Cloud Cloud Cloud Cloud
SCT 11.000
METAR LIPI 041655Z 25004KT 9999 SCT110 14/08 Q1006

METAR Aviosuperficie Chiasiellis - IT-0405

Aviosuperficie Chiasiellis是,意大利中的小机场。 该机场位于纬度45,94545和经度13,20811。 该机场有一条跑道: 16/34. 这个机场没有ICAO代码,我们使用IT-0405作为参考。 机场在Milano FIR中。

该航空气象观测是针对Rivolto Air Base在2024年3月4日 17:55, 当地时间进行的。

机场观察

风向为250°,速度为4 kt。

可见度为10 km 或者更多。

有疏云,零星散落的云朵在11.000 ft的高度。 没有观察到天花板。

温度和风寒是14 °C。 露点为8 °C,相对湿度为67%。 海平面上的气压为1006 hPa (QNH)。

白天

今天,太阳从06:39升起,在17:58降落。 这适用于Aviosuperficie Chiasiellis,世界夏令时可能有所不同。 当地时间与世界标准时间之间的时差为+1 小时。 当前,没有夏令时有效。

公司介绍

我们没有关于这个机场的公司信息。

体会

到Vliegles.nl去找飞行课程,跳伞和其他飞行体验。 浏览页面,了解Aviosuperficie Chiasiellis附近所有可用的活动。 你也可以使用搜索功能来寻找你所在地附近的特定飞行课程、跳伞或其他飞行体验。

跑道

Id 标题 侧风 逆风 侧风 %
16/34 159°-339° 4 kt 100 %

逆风成分最大的方向会被突出显示,并用于横风计算。 这并不一定意味着这个方向在使用。

乌云

11.000 ft SCT 疏云,零星散落的云朵

温度 & 天气

温度 14 °C
露点 8 °C
相对湿度 67%
Kp-index 0 (0-9)

白天

日出
06:40 (11:30)
中午
12:19
日落
17:58

小工具

你想在你的网站上有一个关于Aviosuperficie Chiasiellis的当前航空天气(METAR)的小部件吗?

显示HTML代码
?>